sensor_id;sensor_type;location;lat;lon;timestamp;pressure;altitude;pressure_sealevel;temperature;humidity
10135;BME280;5107;48.850;8.924;2022-08-11T00:01:46;97302.75;;;19.58;43.49
10135;BME280;5107;48.850;8.924;2022-08-11T00:04:15;97302.75;;;19.58;43.52
10135;BME280;5107;48.850;8.924;2022-08-11T00:06:44;97303.13;;;19.61;45.90
10135;BME280;5107;48.850;8.924;2022-08-11T00:09:19;97294.50;;;19.66;45.12
10135;BME280;5107;48.850;8.924;2022-08-11T00:11:49;97297.53;;;19.69;45.07
10135;BME280;5107;48.850;8.924;2022-08-11T00:14:21;97300.41;;;19.68;43.56
10135;BME280;5107;48.850;8.924;2022-08-11T00:16:55;97300.22;;;19.69;42.87
10135;BME280;5107;48.850;8.924;2022-08-11T00:19:25;97303.88;;;19.75;43.00
10135;BME280;5107;48.850;8.924;2022-08-11T00:21:55;97299.81;;;19.66;43.44
10135;BME280;5107;48.850;8.924;2022-08-11T00:24:23;97304.56;;;19.64;43.31
10135;BME280;5107;48.850;8.924;2022-08-11T00:26:53;97297.78;;;19.61;43.41
10135;BME280;5107;48.850;8.924;2022-08-11T00:29:22;97302.28;;;19.61;44.25
10135;BME280;5107;48.850;8.924;2022-08-11T00:31:51;97304.34;;;19.59;43.39
10135;BME280;5107;48.850;8.924;2022-08-11T00:34:24;97304.16;;;19.60;45.78
10135;BME280;5107;48.850;8.924;2022-08-11T00:36:56;97310.09;;;19.62;46.10
10135;BME280;5107;48.850;8.924;2022-08-11T00:39:26;97307.63;;;19.61;45.54
10135;BME280;5107;48.850;8.924;2022-08-11T00:42:09;97306.81;;;19.60;45.82
10135;BME280;5107;48.850;8.924;2022-08-11T00:45:01;97307.03;;;19.59;46.06
10135;BME280;5107;48.850;8.924;2022-08-11T00:47:45;97304.78;;;19.56;44.09
10135;BME280;5107;48.850;8.924;2022-08-11T00:50:40;97305.41;;;19.58;46.02
10135;BME280;5107;48.850;8.924;2022-08-11T00:53:45;97307.03;;;19.59;45.42
10135;BME280;5107;48.850;8.924;2022-08-11T01:00:14;97297.63;;;19.50;46.17
10135;BME280;5107;48.850;8.924;2022-08-11T01:03:09;97300.31;;;19.50;46.45
10135;BME280;5107;48.850;8.924;2022-08-11T01:05:59;97294.34;;;19.41;46.34
10135;BME280;5107;48.850;8.924;2022-08-11T01:09:18;97291.09;;;19.32;44.97
10135;BME280;5107;48.850;8.924;2022-08-11T01:12:18;97291.72;;;19.21;44.62
10135;BME280;5107;48.850;8.924;2022-08-11T01:22:25;97299.47;;;19.36;44.09
10135;BME280;5107;48.850;8.924;2022-08-11T01:29:13;97297.41;;;19.45;43.80
10135;BME280;5107;48.850;8.924;2022-08-11T01:32:21;97302.94;;;19.43;43.41
10135;BME280;5107;48.850;8.924;2022-08-11T01:35:32;97296.00;;;19.49;44.15
10135;BME280;5107;48.850;8.924;2022-08-11T01:39:12;97296.00;;;19.49;43.66
10135;BME280;5107;48.850;8.924;2022-08-11T01:42:06;97292.06;;;19.51;44.11
10135;BME280;5107;48.850;8.924;2022-08-11T01:45:15;97291.66;;;19.54;45.68
10135;BME280;5107;48.850;8.924;2022-08-11T01:47:58;97290.63;;;19.55;45.58
10135;BME280;5107;48.850;8.924;2022-08-11T01:50:47;97293.50;;;19.54;45.92
10135;BME280;5107;48.850;8.924;2022-08-11T01:53:30;97295.75;;;19.57;45.83
10135;BME280;5107;48.850;8.924;2022-08-11T01:56:14;97287.13;;;19.55;46.21
10135;BME280;5107;48.850;8.924;2022-08-11T01:58:49;97283.00;;;19.59;45.26
10135;BME280;5107;48.850;8.924;2022-08-11T02:01:40;97278.25;;;19.61;46.27
10135;BME280;5107;48.850;8.924;2022-08-11T02:04:23;97280.94;;;19.61;45.53
10135;BME280;5107;48.850;8.924;2022-08-11T02:07:02;97278.25;;;19.61;44.08
10135;BME280;5107;48.850;8.924;2022-08-11T02:09:54;97283.63;;;19.54;44.60
10135;BME280;5107;48.850;8.924;2022-08-11T02:12:45;97278.34;;;19.48;44.29
10135;BME280;5107;48.850;8.924;2022-08-11T02:15:26;97278.09;;;19.43;45.34
10135;BME280;5107;48.850;8.924;2022-08-11T02:18:04;97271.75;;;19.37;45.33
10135;BME280;5107;48.850;8.924;2022-08-11T02:20:42;97277.75;;;19.32;46.29
10135;BME280;5107;48.850;8.924;2022-08-11T02:23:35;97273.44;;;19.31;45.39
10135;BME280;5107;48.850;8.924;2022-08-11T02:26:15;97276.09;;;19.31;44.94
10135;BME280;5107;48.850;8.924;2022-08-11T02:28:55;97278.19;;;19.23;44.90
10135;BME280;5107;48.850;8.924;2022-08-11T02:31:36;97288.88;;;19.10;45.20
10135;BME280;5107;48.850;8.924;2022-08-11T02:34:37;97274.97;;;18.88;47.53
10135;BME280;5107;48.850;8.924;2022-08-11T02:37:17;97280.75;;;18.65;48.14
10135;BME280;5107;48.850;8.924;2022-08-11T02:40:08;97286.69;;;18.47;48.98
10135;BME280;5107;48.850;8.924;2022-08-11T02:42:48;97277.63;;;18.42;49.24
10135;BME280;5107;48.850;8.924;2022-08-11T02:45:38;97280.31;;;18.15;49.81
10135;BME280;5107;48.850;8.924;2022-08-11T02:48:24;97276.59;;;18.03;49.96
10135;BME280;5107;48.850;8.924;2022-08-11T02:51:23;97282.72;;;17.91;49.75
10135;BME280;5107;48.850;8.924;2022-08-11T02:54:02;97285.13;;;17.72;50.22
10135;BME280;5107;48.850;8.924;2022-08-11T02:56:50;97286.72;;;17.67;51.14
10135;BME280;5107;48.850;8.924;2022-08-11T02:59:44;97283.47;;;17.71;51.01
10135;BME280;5107;48.850;8.924;2022-08-11T03:02:45;97285.97;;;17.73;50.17
10135;BME280;5107;48.850;8.924;2022-08-11T03:05:37;97289.44;;;17.73;50.94
10135;BME280;5107;48.850;8.924;2022-08-11T03:11:06;97282.69;;;17.77;50.45
10135;BME280;5107;48.850;8.924;2022-08-11T03:14:09;97277.53;;;17.76;51.27
10135;BME280;5107;48.850;8.924;2022-08-11T03:17:03;97276.31;;;17.72;51.58
10135;BME280;5107;48.850;8.924;2022-08-11T03:19:52;97279.19;;;17.70;51.20
10135;BME280;5107;48.850;8.924;2022-08-11T03:22:31;97281.44;;;17.73;51.50
10135;BME280;5107;48.850;8.924;2022-08-11T03:25:05;97281.03;;;17.70;50.98
10135;BME280;5107;48.850;8.924;2022-08-11T03:27:46;97282.16;;;17.54;53.77
10135;BME280;5107;48.850;8.924;2022-08-11T03:30:22;97283.78;;;17.49;51.34
10135;BME280;5107;48.850;8.924;2022-08-11T03:33:07;97289.88;;;17.36;51.17
10135;BME280;5107;48.850;8.924;2022-08-11T03:36:13;97293.28;;;17.23;53.31
10135;BME280;5107;48.850;8.924;2022-08-11T03:39:07;97294.31;;;17.22;52.08
10135;BME280;5107;48.850;8.924;2022-08-11T03:41:43;97295.13;;;17.23;53.75
10135;BME280;5107;48.850;8.924;2022-08-11T03:44:33;97295.72;;;17.18;51.69
10135;BME280;5107;48.850;8.924;2022-08-11T03:50:21;97309.31;;;17.02;52.74
10135;BME280;5107;48.850;8.924;2022-08-11T03:53:05;97310.06;;;16.89;53.27
10135;BME280;5107;48.850;8.924;2022-08-11T03:56:08;97300.97;;;16.77;53.50
10135;BME280;5107;48.850;8.924;2022-08-11T04:02:26;97303.13;;;16.88;53.61
10135;BME280;5107;48.850;8.924;2022-08-11T04:05:40;97293.13;;;16.90;53.97
10135;BME280;5107;48.850;8.924;2022-08-11T04:09:04;97296.38;;;16.92;54.12
10135;BME280;5107;48.850;8.924;2022-08-11T04:12:13;97293.72;;;16.92;53.88
10135;BME280;5107;48.850;8.924;2022-08-11T04:15:07;97310.06;;;16.89;54.15
10135;BME280;5107;48.850;8.924;2022-08-11T04:18:27;97294.31;;;16.88;54.24
10135;BME280;5107;48.850;8.924;2022-08-11T04:21:25;97303.13;;;16.88;53.38
10135;BME280;5107;48.850;8.924;2022-08-11T04:28:05;97295.63;;;16.98;53.15
10135;BME280;5107;48.850;8.924;2022-08-11T04:30:58;97296.84;;;17.02;52.95
10135;BME280;5107;48.850;8.924;2022-08-11T04:33:57;97296.22;;;17.00;53.39
10135;BME280;5107;48.850;8.924;2022-08-11T04:37:02;97289.88;;;17.01;54.06
10135;BME280;5107;48.850;8.924;2022-08-11T04:47:09;97299.00;;;16.86;54.62
10135;BME280;5107;48.850;8.924;2022-08-11T04:50:21;97303.19;;;17.01;54.00
10135;BME280;5107;48.850;8.924;2022-08-11T04:53:28;97293.06;;;17.25;54.24
10135;BME280;5107;48.850;8.924;2022-08-11T04:56:21;97285.97;;;17.79;52.45
10135;BME280;5107;48.850;8.924;2022-08-11T04:59:29;97289.53;;;18.19;51.93
10135;BME280;5107;48.850;8.924;2022-08-11T05:03:14;97304.47;;;19.13;49.03
10135;BME280;5107;48.850;8.924;2022-08-11T05:09:26;97307.56;;;20.50;44.95
10135;BME280;5107;48.850;8.924;2022-08-11T05:12:20;97310.09;;;21.13;44.17
10135;BME280;5107;48.850;8.924;2022-08-11T05:14:52;97305.72;;;20.94;43.97
10135;BME280;5107;48.850;8.924;2022-08-11T05:17:41;97307.88;;;20.60;44.55
10135;BME280;5107;48.850;8.924;2022-08-11T05:20:47;97310.06;;;20.95;44.70
10135;BME280;5107;48.850;8.924;2022-08-11T05:23:40;97307.66;;;20.62;45.01
10135;BME280;5107;48.850;8.924;2022-08-11T05:26:45;97306.16;;;20.72;45.17
10135;BME280;5107;48.850;8.924;2022-08-11T05:29:43;97309.09;;;20.64;45.39
10135;BME280;5107;48.850;8.924;2022-08-11T05:32:34;97312.06;;;21.61;44.54
10135;BME280;5107;48.850;8.924;2022-08-11T05:35:28;97306.97;;;22.49;42.12
10135;BME280;5107;48.850;8.924;2022-08-11T05:37:57;97310.06;;;23.22;41.06
10135;BME280;5107;48.850;8.924;2022-08-11T05:40:49;97305.81;;;24.01;38.28
10135;BME280;5107;48.850;8.924;2022-08-11T05:43:41;97311.63;;;23.81;38.55
10135;BME280;5107;48.850;8.924;2022-08-11T05:46:27;97306.22;;;23.06;40.38
10135;BME280;5107;48.850;8.924;2022-08-11T05:49:14;97313.50;;;23.69;40.14
10135;BME280;5107;48.850;8.924;2022-08-11T05:51:59;97321.63;;;23.58;39.93
10135;BME280;5107;48.850;8.924;2022-08-11T05:54:46;97312.19;;;24.12;37.97
10135;BME280;5107;48.850;8.924;2022-08-11T05:57:36;97311.94;;;24.25;37.24
10135;BME280;5107;48.850;8.924;2022-08-11T06:00:06;97305.16;;;24.11;36.73
10135;BME280;5107;48.850;8.924;2022-08-11T06:02:40;97308.84;;;24.05;36.75
10135;BME280;5107;48.850;8.924;2022-08-11T06:05:09;97316.22;;;23.46;37.67
10135;BME280;5107;48.850;8.924;2022-08-11T06:07:38;97315.91;;;23.07;39.32
10135;BME280;5107;48.850;8.924;2022-08-11T06:10:06;97311.13;;;22.98;38.82
10135;BME280;5107;48.850;8.924;2022-08-11T06:12:36;97315.56;;;22.81;39.23
10135;BME280;5107;48.850;8.924;2022-08-11T06:15:09;97320.34;;;22.90;39.63
10135;BME280;5107;48.850;8.924;2022-08-11T06:17:45;97313.59;;;22.99;40.39
10135;BME280;5107;48.850;8.924;2022-08-11T06:20:14;97313.44;;;23.29;38.72
10135;BME280;5107;48.850;8.924;2022-08-11T06:22:45;97316.38;;;23.51;39.53
10135;BME280;5107;48.850;8.924;2022-08-11T06:25:14;97316.25;;;23.58;38.01
10135;BME280;5107;48.850;8.924;2022-08-11T06:27:44;97322.06;;;23.66;38.43
10135;BME280;5107;48.850;8.924;2022-08-11T06:30:13;97325.81;;;23.65;38.09
10135;BME280;5107;48.850;8.924;2022-08-11T06:32:43;97325.00;;;23.53;40.80
10135;BME280;5107;48.850;8.924;2022-08-11T06:35:21;97316.56;;;23.61;40.00
10135;BME280;5107;48.850;8.924;2022-08-11T06:38:09;97323.94;;;23.54;39.07
10135;BME280;5107;48.850;8.924;2022-08-11T06:40:52;97321.13;;;23.37;39.30
10135;BME280;5107;48.850;8.924;2022-08-11T06:43:46;97320.81;;;23.86;38.38
10135;BME280;5107;48.850;8.924;2022-08-11T06:46:31;97316.22;;;23.98;38.74
10135;BME280;5107;48.850;8.924;2022-08-11T06:49:02;97321.06;;;24.24;38.06
10135;BME280;5107;48.850;8.924;2022-08-11T06:51:30;97320.69;;;24.49;39.02
10135;BME280;5107;48.850;8.924;2022-08-11T06:54:00;97322.34;;;24.83;37.00
10135;BME280;5107;48.850;8.924;2022-08-11T06:56:30;97313.63;;;24.76;37.33
10135;BME280;5107;48.850;8.924;2022-08-11T06:59:17;97321.16;;;24.91;36.74
10135;BME280;5107;48.850;8.924;2022-08-11T07:02:08;97321.13;;;24.74;36.16
10135;BME280;5107;48.850;8.924;2022-08-11T07:04:42;97319.81;;;24.60;36.70
10135;BME280;5107;48.850;8.924;2022-08-11T07:10:46;97319.13;;;24.08;38.21
10135;BME280;5107;48.850;8.924;2022-08-11T07:13:36;97321.00;;;23.67;38.32
10135;BME280;5107;48.850;8.924;2022-08-11T07:16:28;97321.47;;;23.76;38.91
10135;BME280;5107;48.850;8.924;2022-08-11T07:19:01;97322.03;;;24.06;38.06
10135;BME280;5107;48.850;8.924;2022-08-11T07:21:47;97326.22;;;24.26;38.10
10135;BME280;5107;48.850;8.924;2022-08-11T07:24:38;97321.72;;;24.31;38.21
10135;BME280;5107;48.850;8.924;2022-08-11T07:27:27;97319.75;;;23.87;39.01
10135;BME280;5107;48.850;8.924;2022-08-11T07:30:28;97325.09;;;24.10;38.48
10135;BME280;5107;48.850;8.924;2022-08-11T07:33:00;97317.84;;;24.55;37.76
10135;BME280;5107;48.850;8.924;2022-08-11T07:35:34;97316.13;;;24.49;38.21
10135;BME280;5107;48.850;8.924;2022-08-11T07:38:05;97313.09;;;24.46;37.69
10135;BME280;5107;48.850;8.924;2022-08-11T07:40:34;97308.19;;;24.26;38.55
10135;BME280;5107;48.850;8.924;2022-08-11T07:43:02;97300.22;;;24.65;37.54
10135;BME280;5107;48.850;8.924;2022-08-11T07:45:32;97296.56;;;24.71;37.70
10135;BME280;5107;48.850;8.924;2022-08-11T07:48:19;97304.81;;;24.98;37.20
10135;BME280;5107;48.850;8.924;2022-08-11T07:51:04;97311.25;;;24.80;36.74
10135;BME280;5107;48.850;8.924;2022-08-11T07:53:50;97303.75;;;25.15;36.32
10135;BME280;5107;48.850;8.924;2022-08-11T07:56:18;97310.22;;;25.36;36.56
10135;BME280;5107;48.850;8.924;2022-08-11T07:58:46;97293.66;;;25.27;36.02
10135;BME280;5107;48.850;8.924;2022-08-11T08:01:31;97305.88;;;25.52;35.99
10135;BME280;5107;48.850;8.924;2022-08-11T08:04:17;97302.59;;;25.50;36.67
10135;BME280;5107;48.850;8.924;2022-08-11T08:07:04;97303.59;;;25.60;35.99
10135;BME280;5107;48.850;8.924;2022-08-11T08:09:49;97310.63;;;25.28;36.37
10135;BME280;5107;48.850;8.924;2022-08-11T08:12:35;97304.25;;;25.73;36.52
10135;BME280;5107;48.850;8.924;2022-08-11T08:15:21;97303.75;;;25.37;36.05
10135;BME280;5107;48.850;8.924;2022-08-11T08:18:08;97303.06;;;25.85;35.54
10135;BME280;5107;48.850;8.924;2022-08-11T08:20:44;97302.25;;;25.85;35.69
10135;BME280;5107;48.850;8.924;2022-08-11T08:23:12;97302.25;;;26.12;35.46
10135;BME280;5107;48.850;8.924;2022-08-11T08:25:43;97302.63;;;26.42;34.83
10135;BME280;5107;48.850;8.924;2022-08-11T08:28:15;97319.53;;;26.11;34.99
10135;BME280;5107;48.850;8.924;2022-08-11T08:30:44;97314.19;;;25.67;36.27
10135;BME280;5107;48.850;8.924;2022-08-11T08:33:19;97312.06;;;25.69;35.79
10135;BME280;5107;48.850;8.924;2022-08-11T08:35:53;97311.25;;;25.95;35.44
10135;BME280;5107;48.850;8.924;2022-08-11T08:38:38;97308.47;;;26.34;35.07
10135;BME280;5107;48.850;8.924;2022-08-11T08:41:06;97310.59;;;25.83;35.58
10135;BME280;5107;48.850;8.924;2022-08-11T08:43:34;97309.22;;;25.81;35.86
10135;BME280;5107;48.850;8.924;2022-08-11T08:46:04;97312.28;;;25.67;35.99
10135;BME280;5107;48.850;8.924;2022-08-11T08:48:32;97301.94;;;25.81;35.80
10135;BME280;5107;48.850;8.924;2022-08-11T08:51:06;97299.28;;;25.86;35.56
10135;BME280;5107;48.850;8.924;2022-08-11T08:53:54;97310.06;;;25.86;35.81
10135;BME280;5107;48.850;8.924;2022-08-11T08:56:28;97284.09;;;26.29;36.09
10135;BME280;5107;48.850;8.924;2022-08-11T08:59:00;97291.53;;;26.17;34.97
10135;BME280;5107;48.850;8.924;2022-08-11T09:01:30;97292.25;;;26.61;35.23
10135;BME280;5107;48.850;8.924;2022-08-11T09:03:59;97294.66;;;26.62;33.35
10135;BME280;5107;48.850;8.924;2022-08-11T09:06:31;97308.28;;;26.72;34.18
10135;BME280;5107;48.850;8.924;2022-08-11T09:08:59;97300.16;;;26.72;33.13
10135;BME280;5107;48.850;8.924;2022-08-11T09:11:26;97292.06;;;26.40;33.54
10135;BME280;5107;48.850;8.924;2022-08-11T09:14:11;97293.25;;;26.87;33.53
10135;BME280;5107;48.850;8.924;2022-08-11T09:16:39;97296.47;;;27.20;33.68
10135;BME280;5107;48.850;8.924;2022-08-11T09:19:07;97297.41;;;27.36;34.74
10135;BME280;5107;48.850;8.924;2022-08-11T09:21:39;97289.41;;;27.56;32.42
10135;BME280;5107;48.850;8.924;2022-08-11T09:24:07;97279.31;;;27.47;32.19
10135;BME280;5107;48.850;8.924;2022-08-11T09:26:52;97283.25;;;27.24;31.78
10135;BME280;5107;48.850;8.924;2022-08-11T09:29:29;97289.34;;;27.04;30.91
10135;BME280;5107;48.850;8.924;2022-08-11T09:31:57;97286.53;;;27.26;31.93
10135;BME280;5107;48.850;8.924;2022-08-11T09:34:25;97289.00;;;26.96;31.21
10135;BME280;5107;48.850;8.924;2022-08-11T09:36:54;97301.88;;;26.25;32.68
10135;BME280;5107;48.850;8.924;2022-08-11T09:39:45;97294.97;;;26.93;31.92
10135;BME280;5107;48.850;8.924;2022-08-11T09:42:30;97293.25;;;27.18;29.54
10135;BME280;5107;48.850;8.924;2022-08-11T09:45:12;97297.69;;;26.98;30.18
10135;BME280;5107;48.850;8.924;2022-08-11T09:47:42;97301.03;;;27.10;30.18
10135;BME280;5107;48.850;8.924;2022-08-11T09:50:10;97296.66;;;27.51;30.31
10135;BME280;5107;48.850;8.924;2022-08-11T09:52:44;97286.88;;;26.98;30.25
10135;BME280;5107;48.850;8.924;2022-08-11T09:55:14;97299.88;;;26.69;30.79
10135;BME280;5107;48.850;8.924;2022-08-11T09:57:45;97296.00;;;26.28;30.88
10135;BME280;5107;48.850;8.924;2022-08-11T10:00:33;97286.72;;;26.77;30.11
10135;BME280;5107;48.850;8.924;2022-08-11T10:03:04;97289.09;;;27.06;29.60
10135;BME280;5107;48.850;8.924;2022-08-11T10:05:33;97285.09;;;26.81;29.67
10135;BME280;5107;48.850;8.924;2022-08-11T10:08:25;97275.56;;;27.01;30.23
10135;BME280;5107;48.850;8.924;2022-08-11T10:10:54;97287.13;;;26.96;30.10
10135;BME280;5107;48.850;8.924;2022-08-11T10:13:28;97283.59;;;26.96;29.84
10135;BME280;5107;48.850;8.924;2022-08-11T10:16:03;97287.38;;;27.37;28.72
10135;BME280;5107;48.850;8.924;2022-08-11T10:18:36;97286.94;;;27.55;28.89
10135;BME280;5107;48.850;8.924;2022-08-11T10:21:34;97283.03;;;27.31;28.66
10135;BME280;5107;48.850;8.924;2022-08-11T10:24:06;97273.44;;;27.13;28.64
10135;BME280;5107;48.850;8.924;2022-08-11T10:26:53;97265.31;;;27.08;28.69
10135;BME280;5107;48.850;8.924;2022-08-11T10:29:25;97272.63;;;27.54;29.18
10135;BME280;5107;48.850;8.924;2022-08-11T10:32:11;97272.44;;;27.76;29.30
10135;BME280;5107;48.850;8.924;2022-08-11T10:34:54;97263.31;;;28.08;27.49
10135;BME280;5107;48.850;8.924;2022-08-11T10:37:23;97263.38;;;28.23;26.95
10135;BME280;5107;48.850;8.924;2022-08-11T10:39:52;97257.25;;;27.65;28.33
10135;BME280;5107;48.850;8.924;2022-08-11T10:42:21;97270.78;;;27.70;28.60
10135;BME280;5107;48.850;8.924;2022-08-11T10:45:08;97260.03;;;27.85;29.14
10135;BME280;5107;48.850;8.924;2022-08-11T10:47:58;97254.72;;;27.48;28.84
10135;BME280;5107;48.850;8.924;2022-08-11T10:50:25;97251.13;;;27.95;29.01
10135;BME280;5107;48.850;8.924;2022-08-11T10:53:10;97245.78;;;28.30;27.93
10135;BME280;5107;48.850;8.924;2022-08-11T10:55:58;97241.09;;;27.90;27.97
10135;BME280;5107;48.850;8.924;2022-08-11T10:58:43;97248.53;;;27.53;28.82
10135;BME280;5107;48.850;8.924;2022-08-11T11:01:22;97237.06;;;27.31;29.12
10135;BME280;5107;48.850;8.924;2022-08-11T11:03:51;97243.34;;;27.41;29.47
10135;BME280;5107;48.850;8.924;2022-08-11T11:06:24;97244.91;;;27.94;28.76
10135;BME280;5107;48.850;8.924;2022-08-11T11:08:59;97227.56;;;28.01;27.92
10135;BME280;5107;48.850;8.924;2022-08-11T11:11:34;97230.88;;;28.18;27.39
10135;BME280;5107;48.850;8.924;2022-08-11T11:14:21;97229.28;;;28.27;27.60
10135;BME280;5107;48.850;8.924;2022-08-11T11:17:12;97223.56;;;28.49;27.20
10135;BME280;5107;48.850;8.924;2022-08-11T11:19:58;97228.66;;;28.00;27.87
10135;BME280;5107;48.850;8.924;2022-08-11T11:22:28;97226.22;;;27.98;27.88
10135;BME280;5107;48.850;8.924;2022-08-11T11:25:19;97227.59;;;28.11;27.65
10135;BME280;5107;48.850;8.924;2022-08-11T11:28:07;97227.38;;;28.53;28.07
10135;BME280;5107;48.850;8.924;2022-08-11T11:30:45;97211.91;;;28.74;26.71
10135;BME280;5107;48.850;8.924;2022-08-11T11:33:25;97214.06;;;28.97;26.75
10135;BME280;5107;48.850;8.924;2022-08-11T11:36:10;97217.06;;;28.75;26.46
10135;BME280;5107;48.850;8.924;2022-08-11T11:38:40;97208.41;;;28.53;26.67
10135;BME280;5107;48.850;8.924;2022-08-11T11:41:10;97211.13;;;28.17;26.61
10135;BME280;5107;48.850;8.924;2022-08-11T11:43:55;97210.03;;;28.44;26.69
10135;BME280;5107;48.850;8.924;2022-08-11T11:46:26;97210.84;;;28.34;27.39
10135;BME280;5107;48.850;8.924;2022-08-11T11:48:56;97208.09;;;28.14;27.26
10135;BME280;5107;48.850;8.924;2022-08-11T11:51:25;97203.47;;;27.89;27.62
10135;BME280;5107;48.850;8.924;2022-08-11T11:53:54;97211.03;;;27.87;27.41
10135;BME280;5107;48.850;8.924;2022-08-11T11:56:23;97203.53;;;28.29;26.76
10135;BME280;5107;48.850;8.924;2022-08-11T11:58:53;97191.06;;;28.59;26.68
10135;BME280;5107;48.850;8.924;2022-08-11T12:01:39;97200.84;;;28.19;26.65
10135;BME280;5107;48.850;8.924;2022-08-11T12:04:09;97203.25;;;28.21;27.30
10135;BME280;5107;48.850;8.924;2022-08-11T12:06:37;97200.56;;;28.26;26.76
10135;BME280;5107;48.850;8.924;2022-08-11T12:09:05;97189.75;;;28.36;26.44
10135;BME280;5107;48.850;8.924;2022-08-11T12:11:33;97201.34;;;28.21;26.92
10135;BME280;5107;48.850;8.924;2022-08-11T12:14:20;97194.88;;;28.53;26.80
10135;BME280;5107;48.850;8.924;2022-08-11T12:16:50;97191.34;;;28.37;26.54
10135;BME280;5107;48.850;8.924;2022-08-11T12:19:22;97186.47;;;28.44;26.69
10135;BME280;5107;48.850;8.924;2022-08-11T12:21:50;97189.72;;;28.41;26.21
10135;BME280;5107;48.850;8.924;2022-08-11T12:24:40;97189.69;;;28.87;27.30
10135;BME280;5107;48.850;8.924;2022-08-11T12:27:26;97178.97;;;29.36;25.74
10135;BME280;5107;48.850;8.924;2022-08-11T12:30:00;97170.53;;;29.32;25.34
10135;BME280;5107;48.850;8.924;2022-08-11T12:32:34;97181.94;;;29.34;24.99
10135;BME280;5107;48.850;8.924;2022-08-11T12:35:03;97184.41;;;29.26;25.28
10135;BME280;5107;48.850;8.924;2022-08-11T12:37:34;97174.91;;;29.28;25.36
10135;BME280;5107;48.850;8.924;2022-08-11T12:40:08;97172.72;;;29.40;25.03
10135;BME280;5107;48.850;8.924;2022-08-11T12:42:58;97176.66;;;29.04;25.08
10135;BME280;5107;48.850;8.924;2022-08-11T12:45:46;97170.16;;;28.90;24.94
10135;BME280;5107;48.850;8.924;2022-08-11T12:48:18;97170.31;;;29.29;25.73
10135;BME280;5107;48.850;8.924;2022-08-11T12:51:08;97161.97;;;29.10;25.76
10135;BME280;5107;48.850;8.924;2022-08-11T12:53:58;97156.34;;;29.56;25.22
10135;BME280;5107;48.850;8.924;2022-08-11T12:56:30;97158.03;;;29.96;24.73
10135;BME280;5107;48.850;8.924;2022-08-11T12:59:16;97148.91;;;30.15;24.86
10135;BME280;5107;48.850;8.924;2022-08-11T13:02:03;97151.69;;;30.05;24.69
10135;BME280;5107;48.850;8.924;2022-08-11T13:04:48;97134.56;;;30.10;25.26
10135;BME280;5107;48.850;8.924;2022-08-11T13:07:26;97139.72;;;29.67;24.44
10135;BME280;5107;48.850;8.924;2022-08-11T13:09:55;97132.13;;;29.69;24.60
10135;BME280;5107;48.850;8.924;2022-08-11T13:12:24;97132.72;;;29.56;24.83
10135;BME280;5107;48.850;8.924;2022-08-11T13:15:13;97126.66;;;29.74;24.66
10135;BME280;5107;48.850;8.924;2022-08-11T13:17:42;97133.94;;;29.30;24.85
10135;BME280;5107;48.850;8.924;2022-08-11T13:20:11;97137.28;;;29.06;24.61
10135;BME280;5107;48.850;8.924;2022-08-11T13:22:41;97120.44;;;29.20;24.46
10135;BME280;5107;48.850;8.924;2022-08-11T13:25:12;97126.38;;;29.22;24.89
10135;BME280;5107;48.850;8.924;2022-08-11T13:27:41;97119.41;;;29.11;25.17
10135;BME280;5107;48.850;8.924;2022-08-11T13:30:12;97125.25;;;29.38;25.00
10135;BME280;5107;48.850;8.924;2022-08-11T13:32:59;97119.59;;;29.78;24.41
10135;BME280;5107;48.850;8.924;2022-08-11T13:35:28;97112.66;;;29.96;24.60
10135;BME280;5107;48.850;8.924;2022-08-11T13:37:57;97118.22;;;30.15;24.53
10135;BME280;5107;48.850;8.924;2022-08-11T13:40:27;97111.28;;;30.04;23.17
10135;BME280;5107;48.850;8.924;2022-08-11T13:42:55;97107.53;;;29.95;23.79
10135;BME280;5107;48.850;8.924;2022-08-11T13:45:25;97108.03;;;29.58;24.23
10135;BME280;5107;48.850;8.924;2022-08-11T13:47:56;97104.97;;;29.69;24.13
10135;BME280;5107;48.850;8.924;2022-08-11T13:50:26;97099.69;;;29.49;24.51
10135;BME280;5107;48.850;8.924;2022-08-11T13:53:15;97096.84;;;29.69;24.27
10135;BME280;5107;48.850;8.924;2022-08-11T13:55:43;97104.50;;;29.62;24.16
10135;BME280;5107;48.850;8.924;2022-08-11T13:58:12;97099.78;;;29.78;24.08
10135;BME280;5107;48.850;8.924;2022-08-11T14:00:42;97093.81;;;30.10;24.55
10135;BME280;5107;48.850;8.924;2022-08-11T14:03:11;97091.25;;;29.90;23.90
10135;BME280;5107;48.850;8.924;2022-08-11T14:05:46;97084.38;;;29.63;23.63
10135;BME280;5107;48.850;8.924;2022-08-11T14:08:23;97083.59;;;29.97;23.07
10135;BME280;5107;48.850;8.924;2022-08-11T14:10:52;97080.72;;;30.17;22.89
10135;BME280;5107;48.850;8.924;2022-08-11T14:13:39;97082.31;;;30.52;22.80
10135;BME280;5107;48.850;8.924;2022-08-11T14:16:15;97077.50;;;30.68;22.61
10135;BME280;5107;48.850;8.924;2022-08-11T14:18:47;97073.97;;;30.67;22.08
10135;BME280;5107;48.850;8.924;2022-08-11T14:21:21;97075.34;;;30.12;22.62
10135;BME280;5107;48.850;8.924;2022-08-11T14:24:08;97070.53;;;30.04;23.46
10135;BME280;5107;48.850;8.924;2022-08-11T14:26:37;97070.69;;;30.41;22.70
10135;BME280;5107;48.850;8.924;2022-08-11T14:29:08;97065.06;;;30.33;22.35
10135;BME280;5107;48.850;8.924;2022-08-11T14:31:48;97068.19;;;30.21;22.71
10135;BME280;5107;48.850;8.924;2022-08-11T14:34:19;97063.44;;;30.32;22.70
10135;BME280;5107;48.850;8.924;2022-08-11T14:36:51;97056.91;;;30.09;21.99
10135;BME280;5107;48.850;8.924;2022-08-11T14:39:22;97058.53;;;30.10;22.92
10135;BME280;5107;48.850;8.924;2022-08-11T14:41:53;97048.41;;;30.15;22.58
10135;BME280;5107;48.850;8.924;2022-08-11T14:44:42;97056.84;;;29.80;22.45
10135;BME280;5107;48.850;8.924;2022-08-11T14:47:45;97058.13;;;30.22;22.69
10135;BME280;5107;48.850;8.924;2022-08-11T14:50:16;97058.59;;;30.00;22.26
10135;BME280;5107;48.850;8.924;2022-08-11T14:52:52;97054.03;;;29.61;22.77
10135;BME280;5107;48.850;8.924;2022-08-11T14:55:24;97042.91;;;29.58;22.70
10135;BME280;5107;48.850;8.924;2022-08-11T14:58:10;97043.19;;;29.56;23.14
10135;BME280;5107;48.850;8.924;2022-08-11T15:00:38;97041.88;;;29.88;22.41
10135;BME280;5107;48.850;8.924;2022-08-11T15:03:09;97038.84;;;29.94;22.57
10135;BME280;5107;48.850;8.924;2022-08-11T15:05:40;97039.91;;;29.59;22.55